Time;durP1;ratioP1;P1;durP2;ratioP2;P2;SDS_P1;SDS_P2;PMS_P1;PMS_P2;Temp;Humidity;BMP_temperature;BMP_pressure;BME280_temperature;BME280_humidity;BME280_pressure;Samples;Min_cycle;Max_cycle;Signal;HPM_P1;HPM_P2
2023/01/22 00:01:21;;;;;;;16.30;12.80;;;1.50;99.90;;;;;;4840113;29;20045;-75
2023/01/22 00:03:48;;;;;;;16.63;11.82;;;1.70;99.90;;;;;;4840272;29;20574;-76
2023/01/22 00:06:15;;;;;;;19.08;12.98;;;1.60;99.90;;;;;;4855987;29;20102;-76
2023/01/22 00:08:42;;;;;;;16.35;12.32;;;1.60;99.90;;;;;;4854734;29;20060;-77
2023/01/22 00:11:10;;;;;;;16.42;12.82;;;1.50;99.90;;;;;;4838931;29;20053;-77
2023/01/22 00:13:37;;;;;;;18.45;13.45;;;1.70;99.90;;;;;;4839640;29;20057;-77
2023/01/22 00:16:04;;;;;;;19.00;13.25;;;1.50;99.90;;;;;;4839662;29;20058;-76
2023/01/22 00:18:34;;;;;;;;;;;1.60;99.90;;;;;;4855107;29;20499;-77
2023/01/22 00:21:01;;;;;;;15.32;12.00;;;1.40;99.90;;;;;;4839102;29;19925;-77
2023/01/22 00:23:28;;;;;;;16.73;12.35;;;1.60;99.90;;;;;;4840226;29;20061;-76
2023/01/22 00:26:01;;;;;;;17.92;12.52;;;1.60;99.90;;;;;;4854994;29;20054;-76
2023/01/22 00:28:29;;;;;;;19.42;14.40;;;1.50;99.90;;;;;;4839802;29;20064;-77
2023/01/22 00:31:00;;;;;;;18.52;12.63;;;1.60;99.90;;;;;;4840709;29;20054;-76
2023/01/22 00:33:28;;;;;;;17.83;12.32;;;1.60;99.90;;;;;;4842349;29;20068;-76
2023/01/22 00:35:55;;;;;;;17.15;12.65;;;1.30;99.90;;;;;;4859877;29;20042;-77
2023/01/22 00:38:22;;;;;;;15.07;12.25;;;1.60;99.90;;;;;;4858060;29;20053;-77
2023/01/22 00:40:48;;;;;;;18.35;12.68;;;1.50;99.90;;;;;;4841556;29;20552;-76
2023/01/22 00:43:15;;;;;;;15.50;12.43;;;1.50;99.90;;;;;;4842125;29;20101;-77
2023/01/22 00:45:45;;;;;;;18.35;13.38;;;1.50;99.90;;;;;;4857824;29;20506;-76
2023/01/22 00:48:12;;;;;;;16.02;12.15;;;1.60;99.90;;;;;;4842420;29;20069;-77
2023/01/22 00:50:38;;;;;;;15.60;12.80;;;1.60;99.90;;;;;;4841564;29;20169;-77
2023/01/22 00:53:05;;;;;;;18.65;13.05;;;1.60;99.90;;;;;;4842189;29;20061;-76
2023/01/22 00:55:32;;;;;;;17.33;12.70;;;1.60;99.90;;;;;;4857445;29;20053;-76
2023/01/22 00:57:59;;;;;;;17.20;11.82;;;3.60;99.90;;;;;;4842133;29;20045;-76
2023/01/22 01:00:26;;;;;;;18.38;12.43;;;1.50;99.90;;;;;;4857044;29;20088;-77
2023/01/22 01:05:38;;;;;;;19.60;12.95;;;1.60;99.90;;;;;;4846936;29;20061;-78
2023/01/22 01:08:05;;;;;;;18.60;12.65;;;1.60;99.90;;;;;;4846791;29;20053;-77
2023/01/22 01:10:31;;;;;;;17.35;12.45;;;1.50;99.90;;;;;;4840134;29;20084;-78
2023/01/22 01:12:58;;;;;;;15.23;11.90;;;1.60;99.90;;;;;;4844397;29;20049;-78
2023/01/22 01:15:25;;;;;;;18.15;13.30;;;1.70;99.90;;;;;;4858489;29;20528;-77
2023/01/22 01:17:52;;;;;;;19.30;13.43;;;1.70;99.90;;;;;;4845523;29;20049;-78
2023/01/22 01:20:19;;;;;;;18.60;12.85;;;1.70;99.90;;;;;;4845533;29;20399;-77
2023/01/22 01:22:46;;;;;;;18.55;13.43;;;1.70;99.90;;;;;;4876621;29;20569;-77
2023/01/22 01:25:13;;;;;;;19.83;12.90;;;1.70;99.90;;;;;;4877175;29;20049;-75
2023/01/22 01:27:40;;;;;;;19.23;12.52;;;2.60;99.90;;;;;;4861511;29;20089;-77
2023/01/22 01:30:08;;;;;;;16.80;12.55;;;1.70;99.90;;;;;;4860771;29;20111;-76
2023/01/22 01:32:35;;;;;;;19.83;14.18;;;1.80;99.90;;;;;;4860864;29;20538;-77
2023/01/22 01:35:02;;;;;;;20.80;14.13;;;1.60;99.90;;;;;;4860476;29;20145;-78
2023/01/22 01:37:29;;;;;;;18.15;13.00;;;1.70;99.90;;;;;;4853028;29;20053;-77
2023/01/22 01:39:56;;;;;;;17.67;13.40;;;2.80;99.90;;;;;;4851717;29;20052;-77
2023/01/22 01:42:31;;;;;;;20.08;14.50;;;1.70;99.90;;;;;;4842007;29;20465;-76
2023/01/22 01:45:20;;;;;;;19.95;13.23;;;1.80;99.90;;;;;;4844765;29;20164;-76
2023/01/22 01:47:49;;;;;;;21.70;13.95;;;1.70;99.90;;;;;;4857464;29;20093;-75
2023/01/22 01:50:18;;;;;;;18.45;14.13;;;1.90;99.90;;;;;;4868235;29;20052;-78
2023/01/22 01:52:45;;;;;;;18.52;13.10;;;1.80;99.90;;;;;;4871892;29;20522;-78
2023/01/22 01:55:13;;;;;;;22.95;13.77;;;2.20;99.90;;;;;;4874459;29;20053;-78
2023/01/22 01:57:40;;;;;;;20.40;12.52;;;1.80;99.90;;;;;;4859284;29;20055;-78
2023/01/22 02:00:11;;;;;;;17.33;12.25;;;1.70;99.90;;;;;;4843746;29;20057;-78
2023/01/22 02:02:41;;;;;;;19.17;13.75;;;1.80;99.90;;;;;;4874688;29;20052;-78
2023/01/22 02:05:09;;;;;;;17.83;13.57;;;1.90;99.90;;;;;;4859167;29;20061;-77
2023/01/22 02:07:36;;;;;;;17.10;12.95;;;1.80;99.90;;;;;;4874378;29;20049;-78
2023/01/22 02:10:05;;;;;;;17.30;13.68;;;3.70;99.90;;;;;;4864940;29;20061;-77
2023/01/22 02:12:35;;;;;;;16.50;12.60;;;1.90;99.90;;;;;;4840689;29;20058;-77
2023/01/22 02:15:03;;;;;;;20.30;13.18;;;1.90;99.90;;;;;;4855730;29;20053;-78
2023/01/22 02:17:29;;;;;;;18.25;12.45;;;2.00;99.90;;;;;;4864399;29;20059;-78
2023/01/22 02:19:56;;;;;;;17.88;12.23;;;1.90;99.90;;;;;;4843472;29;20045;-77
2023/01/22 02:22:27;;;;;;;20.52;13.27;;;1.80;99.90;;;;;;4874387;29;20120;-78
2023/01/22 02:24:55;;;;;;;18.70;13.20;;;1.80;99.90;;;;;;4858770;29;20421;-78
2023/01/22 02:27:22;;;;;;;18.85;13.05;;;2.00;99.90;;;;;;4837526;29;20119;-78
2023/01/22 02:29:50;;;;;;;17.73;12.63;;;1.90;99.90;;;;;;4852214;29;20106;-77
2023/01/22 02:32:16;;;;;;;15.27;12.55;;;1.70;99.90;;;;;;4831433;29;20102;-78
2023/01/22 02:34:43;;;;;;;16.85;12.73;;;1.90;99.90;;;;;;4855808;29;20053;-77
2023/01/22 02:37:11;;;;;;;20.50;14.80;;;1.90;99.90;;;;;;4855629;29;20057;-77
2023/01/22 02:39:40;;;;;;;18.15;13.18;;;1.90;99.90;;;;;;4853233;29;20060;-77
2023/01/22 02:42:07;;;;;;;16.77;11.63;;;1.90;99.90;;;;;;4840636;29;20879;-77
2023/01/22 02:44:35;;;;;;;19.77;13.70;;;1.90;99.90;;;;;;4855798;29;20057;-76
2023/01/22 02:47:02;;;;;;;19.70;12.82;;;1.90;99.90;;;;;;4840366;29;20368;-76
2023/01/22 02:49:30;;;;;;;17.75;12.43;;;2.00;99.90;;;;;;4825777;29;20053;-77
2023/01/22 02:51:57;;;;;;;18.55;13.98;;;1.90;99.90;;;;;;4856801;29;20053;-76
2023/01/22 02:54:24;;;;;;;17.13;11.73;;;2.00;99.90;;;;;;4839633;29;20049;-76
2023/01/22 02:56:51;;;;;;;16.27;12.07;;;3.70;99.90;;;;;;4842972;29;20060;-76
2023/01/22 02:59:18;;;;;;;15.25;11.82;;;1.90;99.90;;;;;;4875326;29;20064;-76
2023/01/22 03:01:45;;;;;;;16.00;12.18;;;1.90;99.90;;;;;;4858416;29;20056;-77
2023/01/22 03:04:14;;;;;;;16.55;11.20;;;3.40;99.90;;;;;;4843769;29;20101;-77
2023/01/22 03:06:43;;;;;;;17.83;12.63;;;1.80;99.90;;;;;;4872134;29;20053;-76
2023/01/22 03:09:12;;;;;;;15.77;11.75;;;2.10;99.90;;;;;;4840001;29;20096;-77
2023/01/22 03:11:40;;;;;;;15.75;11.30;;;2.00;99.90;;;;;;4839718;29;20045;-75
2023/01/22 03:22:29;;;;;;;17.65;12.98;;;2.00;99.90;;;;;;4842376;29;20418;-77
2023/01/22 03:24:57;;;;;;;16.65;11.50;;;2.10;99.90;;;;;;4840258;29;20087;-77
2023/01/22 03:27:26;;;;;;;15.23;10.68;;;2.10;99.90;;;;;;4840062;29;20069;-76
2023/01/22 03:29:53;;;;;;;15.85;11.88;;;2.00;99.90;;;;;;4839803;29;20050;-76
2023/01/22 03:32:21;;;;;;;17.08;10.63;;;2.20;99.90;;;;;;4839966;29;20485;-76
2023/01/22 03:34:49;;;;;;;15.07;10.75;;;2.00;99.90;;;;;;4839895;29;20118;-76
2023/01/22 03:37:16;;;;;;;17.05;12.07;;;2.10;99.90;;;;;;4838016;29;20060;-77
2023/01/22 03:39:45;;;;;;;14.70;9.45;;;2.10;99.90;;;;;;4840044;29;20476;-77
2023/01/22 03:42:23;;;;;;;15.35;10.68;;;2.90;99.90;;;;;;4841005;29;20050;-77
2023/01/22 03:44:50;;;;;;;14.60;9.93;;;2.00;99.90;;;;;;4854795;29;20059;-76
2023/01/22 03:47:17;;;;;;;13.48;10.52;;;2.10;99.90;;;;;;4853970;29;20054;-77
2023/01/22 03:49:44;;;;;;;14.65;9.68;;;2.10;99.90;;;;;;4855372;29;20487;-76
2023/01/22 03:52:13;;;;;;;16.67;10.98;;;2.10;99.90;;;;;;4839342;29;20169;-76
2023/01/22 03:54:40;;;;;;;13.52;10.57;;;2.10;99.90;;;;;;4824282;29;20052;-76
2023/01/22 03:57:09;;;;;;;13.80;9.40;;;2.10;99.90;;;;;;4839515;29;20041;-77
2023/01/22 03:59:38;;;;;;;15.13;9.55;;;2.10;99.90;;;;;;4839509;29;20761;-77
2023/01/22 04:02:07;;;;;;;14.05;9.90;;;2.10;99.90;;;;;;4853967;29;20045;-77
2023/01/22 04:04:46;;;;;;;12.63;10.18;;;2.00;99.90;;;;;;4843083;29;20446;-76
2023/01/22 04:07:13;;;;;;;13.82;9.77;;;2.20;99.90;;;;;;4848449;29;20438;-77
2023/01/22 04:09:40;;;;;;;13.68;10.13;;;2.10;99.90;;;;;;4851804;29;20136;-77
2023/01/22 04:12:07;;;;;;;11.57;9.18;;;2.10;99.90;;;;;;4824171;29;20053;-76
2023/01/22 04:14:34;;;;;;;13.25;9.38;;;2.30;99.90;;;;;;4842996;29;20057;-76
2023/01/22 04:17:02;;;;;;;12.23;10.07;;;2.20;99.90;;;;;;4842575;29;20132;-76
2023/01/22 04:19:39;;;;;;;15.02;11.00;;;2.10;99.90;;;;;;4843919;29;20424;-76
2023/01/22 04:22:15;;;;;;;12.98;10.50;;;2.10;99.90;;;;;;4844181;29;20062;-76
2023/01/22 04:24:43;;;;;;;11.00;9.10;;;2.10;99.90;;;;;;4843017;29;20098;-77
2023/01/22 04:27:10;;;;;;;10.23;8.23;;;2.10;99.90;;;;;;4827583;29;20426;-77
2023/01/22 04:29:37;;;;;;;12.52;8.13;;;2.10;99.90;;;;;;4857774;29;20054;-77
2023/01/22 04:32:06;;;;;;;10.82;8.02;;;2.20;99.90;;;;;;4857905;29;20136;-76
2023/01/22 04:34:56;;;;;;;12.82;9.23;;;2.20;99.90;;;;;;4826786;29;20167;-77
2023/01/22 04:37:32;;;;;;;10.95;8.27;;;2.20;99.90;;;;;;4825634;29;20057;-77
2023/01/22 04:40:04;;;;;;;9.50;7.50;;;2.30;99.90;;;;;;4825112;29;20046;-77
2023/01/22 04:42:33;;;;;;;10.88;9.20;;;2.20;99.90;;;;;;4835871;29;20109;-76
2023/01/22 04:45:00;;;;;;;10.20;7.78;;;2.20;99.90;;;;;;4827184;29;20080;-77
2023/01/22 04:47:29;;;;;;;10.57;8.45;;;2.30;99.90;;;;;;4842999;29;20060;-77
2023/01/22 04:49:56;;;;;;;9.85;8.00;;;2.20;99.90;;;;;;4827396;29;20064;-77
2023/01/22 04:52:23;;;;;;;11.10;7.85;;;2.30;99.90;;;;;;4858145;29;20105;-77
2023/01/22 04:54:50;;;;;;;9.40;7.75;;;2.20;99.90;;;;;;4827317;29;20579;-76
2023/01/22 04:57:17;;;;;;;11.20;8.45;;;2.20;99.90;;;;;;4831765;29;20075;-76
2023/01/22 04:59:45;;;;;;;12.20;8.65;;;2.20;99.90;;;;;;4860297;29;20049;-77
2023/01/22 05:02:12;;;;;;;12.82;8.43;;;2.20;99.90;;;;;;4858537;29;20069;-77
2023/01/22 05:04:40;;;;;;;10.27;7.95;;;2.20;99.90;;;;;;4860214;29;20079;-76
2023/01/22 05:07:07;;;;;;;9.25;7.32;;;2.20;99.90;;;;;;4860707;29;20789;-76
2023/01/22 05:09:34;;;;;;;11.75;8.05;;;2.30;99.90;;;;;;4855260;29;20422;-76
2023/01/22 05:12:01;;;;;;;11.02;7.93;;;2.20;99.90;;;;;;4841711;29;20058;-77
2023/01/22 05:14:32;;;;;;;11.40;8.15;;;2.30;99.90;;;;;;4842182;29;20136;-77
2023/01/22 05:17:00;;;;;;;10.48;8.52;;;3.80;99.90;;;;;;4841219;29;20060;-77
2023/01/22 05:19:27;;;;;;;10.25;7.32;;;2.20;99.90;;;;;;4841722;29;20820;-77
2023/01/22 05:21:54;;;;;;;8.88;7.95;;;2.20;99.90;;;;;;4856068;29;20142;-76
2023/01/22 05:24:21;;;;;;;9.18;7.47;;;2.20;99.90;;;;;;4856896;29;20109;-77
2023/01/22 05:26:48;;;;;;;9.48;7.57;;;2.40;99.90;;;;;;4841880;29;20077;-76
2023/01/22 05:29:24;;;;;;;8.80;7.40;;;2.30;99.90;;;;;;4842540;29;20136;-76
2023/01/22 05:32:20;;;;;;;9.52;7.78;;;2.20;99.90;;;;;;4844795;29;20061;-76
2023/01/22 05:34:52;;;;;;;9.80;7.50;;;2.30;99.90;;;;;;4842120;29;20085;-76
2023/01/22 05:37:19;;;;;;;11.70;8.52;;;2.10;99.90;;;;;;4856487;29;20419;-76
2023/01/22 05:39:47;;;;;;;9.52;8.18;;;2.30;99.90;;;;;;4833961;29;20506;-76
2023/01/22 05:42:16;;;;;;;9.73;7.07;;;2.20;99.90;;;;;;4837952;29;20054;-77
2023/01/22 05:44:46;;;;;;;;;;;2.30;99.90;;;;;;4853272;29;20041;-77
2023/01/22 05:47:13;;;;;;;9.45;7.45;;;2.30;99.90;;;;;;4837805;29;19947;-76
2023/01/22 05:49:58;;;;;;;8.88;7.40;;;2.40;99.90;;;;;;4838383;29;20141;-76
2023/01/22 05:52:25;;;;;;;8.55;6.75;;;2.30;99.90;;;;;;4852912;29;20064;-75
2023/01/22 05:54:52;;;;;;;11.98;8.02;;;2.20;99.90;;;;;;4837614;29;20054;-76
2023/01/22 05:57:19;;;;;;;7.82;6.68;;;2.30;99.90;;;;;;4852892;29;20049;-76
2023/01/22 05:59:46;;;;;;;9.05;7.60;;;2.20;99.90;;;;;;4852745;29;20057;-76
2023/01/22 06:02:13;;;;;;;8.13;6.63;;;2.30;99.90;;;;;;4822908;29;20106;-77
2023/01/22 06:04:42;;;;;;;8.32;6.20;;;2.30;99.90;;;;;;4838159;29;20053;-76
2023/01/22 06:07:21;;;;;;;10.93;7.32;;;2.20;99.90;;;;;;4837544;29;20062;-76
2023/01/22 06:09:47;;;;;;;9.60;6.85;;;2.20;99.90;;;;;;4852322;29;20074;-76
2023/01/22 06:12:15;;;;;;;9.32;7.13;;;2.30;99.90;;;;;;4822428;29;20682;-76
2023/01/22 06:14:42;;;;;;;10.38;7.57;;;2.20;99.90;;;;;;4838460;29;20054;-77
2023/01/22 06:17:10;;;;;;;15.10;11.98;;;2.80;99.90;;;;;;4837586;29;20046;-77
2023/01/22 06:19:41;;;;;;;24.10;15.82;;;2.30;99.90;;;;;;4837154;29;20053;-76
2023/01/22 06:22:08;;;;;;;29.70;17.70;;;2.20;99.90;;;;;;4821906;29;20054;-76
2023/01/22 06:24:45;;;;;;;11.25;9.98;;;2.40;99.90;;;;;;4823228;29;20076;-75
2023/01/22 06:27:13;;;;;;;17.90;15.55;;;2.40;99.90;;;;;;4836487;29;20084;-76
2023/01/22 06:29:50;;;;;;;16.38;14.25;;;1.00;99.90;;;;;;4823262;29;20562;-77
2023/01/22 06:32:16;;;;;;;8.77;7.85;;;2.40;99.90;;;;;;4836867;29;20169;-77
2023/01/22 06:34:43;;;;;;;8.88;6.88;;;2.30;99.90;;;;;;4858868;29;20059;-77
2023/01/22 06:37:10;;;;;;;10.93;8.35;;;2.40;99.90;;;;;;4843275;29;20053;-76
2023/01/22 06:39:38;;;;;;;7.72;6.93;;;2.30;99.90;;;;;;4853053;29;20109;-75
2023/01/22 06:42:16;;;;;;;9.18;7.47;;;2.20;99.90;;;;;;4855163;29;20045;-76
2023/01/22 06:44:46;;;;;;;;;;;2.20;99.90;;;;;;4840445;29;20053;-77
2023/01/22 06:47:13;;;;;;;;;;;2.20;99.90;;;;;;4840490;29;19928;-76
2023/01/22 06:49:40;;;;;;;7.93;6.57;;;2.30;99.90;;;;;;4840078;29;19923;-77
2023/01/22 06:52:07;;;;;;;7.50;6.55;;;2.80;99.90;;;;;;4839970;29;20057;-76
2023/01/22 06:54:34;;;;;;;7.80;6.70;;;2.40;99.90;;;;;;4840159;29;20049;-77
2023/01/22 06:57:01;;;;;;;8.52;6.32;;;2.40;99.90;;;;;;4855922;29;20069;-77
2023/01/22 06:59:27;;;;;;;8.43;7.55;;;2.20;99.90;;;;;;4855912;29;20110;-76
2023/01/22 07:01:54;;;;;;;12.25;9.35;;;2.40;99.90;;;;;;4839510;29;20084;-77
2023/01/22 07:04:21;;;;;;;14.07;12.57;;;2.20;99.90;;;;;;4839665;29;20057;-76
2023/01/22 07:06:48;;;;;;;15.15;12.63;;;2.30;99.90;;;;;;4839871;29;20153;-76
2023/01/22 07:09:15;;;;;;;12.50;10.32;;;2.40;99.90;;;;;;4836405;29;20583;-77
2023/01/22 07:11:41;;;;;;;11.23;8.77;;;2.40;99.90;;;;;;4821098;29;20618;-76
2023/01/22 07:14:08;;;;;;;8.45;7.32;;;2.20;99.90;;;;;;4851691;29;20057;-76
2023/01/22 07:16:35;;;;;;;8.75;7.72;;;2.40;99.90;;;;;;4836249;29;20058;-78
2023/01/22 07:19:01;;;;;;;8.25;7.35;;;2.40;99.90;;;;;;4883179;29;20148;-77
2023/01/22 07:21:28;;;;;;;8.98;7.22;;;2.40;99.90;;;;;;4872793;29;20132;-77
2023/01/22 07:23:55;;;;;;;9.13;6.82;;;2.30;99.90;;;;;;4873017;29;20463;-78
2023/01/22 07:26:22;;;;;;;7.47;6.45;;;2.40;99.90;;;;;;4873034;29;20037;-78
2023/01/22 07:28:48;;;;;;;8.05;6.63;;;2.30;99.90;;;;;;4857961;29;20451;-78
2023/01/22 07:31:15;;;;;;;7.82;6.57;;;2.30;99.90;;;;;;4857349;29;20057;-78
2023/01/22 07:33:42;;;;;;;9.27;6.75;;;2.30;99.90;;;;;;4873356;29;20064;-76
2023/01/22 07:36:09;;;;;;;7.60;6.75;;;2.40;99.90;;;;;;4872893;29;20053;-76
2023/01/22 07:38:35;;;;;;;7.78;6.45;;;2.40;99.90;;;;;;4872397;29;20147;-76
2023/01/22 07:41:04;;;;;;;8.23;7.43;;;2.30;99.90;;;;;;4840376;29;20086;-76
2023/01/22 07:43:48;;;;;;;9.00;6.68;;;2.30;99.90;;;;;;4840717;29;20061;-76
2023/01/22 07:46:15;;;;;;;8.00;6.72;;;2.40;99.90;;;;;;4839255;29;20077;-76
2023/01/22 07:48:42;;;;;;;7.80;7.00;;;2.40;99.90;;;;;;4839068;29;20748;-75
2023/01/22 07:51:11;;;;;;;7.93;7.07;;;2.40;99.90;;;;;;4854378;29;20042;-76
2023/01/22 07:53:39;;;;;;;8.98;5.82;;;2.50;99.90;;;;;;4854386;29;20142;-76
2023/01/22 07:56:06;;;;;;;8.18;6.80;;;2.50;99.90;;;;;;4854220;29;20081;-77
2023/01/22 07:58:32;;;;;;;8.43;7.35;;;2.50;99.90;;;;;;4854795;29;20054;-76
2023/01/22 08:01:05;;;;;;;8.43;6.85;;;2.50;99.90;;;;;;4854003;29;20514;-76
2023/01/22 08:03:33;;;;;;;8.18;7.32;;;2.50;99.90;;;;;;4855736;29;20053;-77
2023/01/22 08:06:00;;;;;;;12.02;7.03;;;2.50;99.90;;;;;;4839259;29;20053;-76
2023/01/22 08:08:26;;;;;;;8.38;7.22;;;2.70;99.90;;;;;;4854547;29;20057;-77
2023/01/22 08:10:57;;;;;;;10.35;7.90;;;2.50;99.90;;;;;;4835783;29;20102;-76
2023/01/22 08:13:24;;;;;;;9.02;6.97;;;2.60;99.90;;;;;;4836478;29;20120;-76
2023/01/22 08:15:50;;;;;;;8.05;6.40;;;2.60;99.90;;;;;;4836362;29;20099;-77
2023/01/22 08:18:17;;;;;;;8.00;6.90;;;2.80;99.90;;;;;;4837230;29;20058;-77
2023/01/22 08:20:47;;;;;;;8.10;6.88;;;2.70;99.90;;;;;;4851012;29;20060;-77
2023/01/22 08:23:13;;;;;;;9.98;8.02;;;2.80;99.90;;;;;;4836081;29;20082;-77
2023/01/22 08:25:40;;;;;;;8.07;7.28;;;2.70;99.90;;;;;;4838390;29;20069;-76
2023/01/22 08:28:07;;;;;;;8.90;7.78;;;2.90;99.90;;;;;;4857673;29;20159;-77
2023/01/22 08:30:36;;;;;;;8.55;7.40;;;2.90;99.90;;;;;;4857636;29;20052;-77
2023/01/22 08:33:11;;;;;;;13.68;11.32;;;2.80;99.90;;;;;;4837021;29;20061;-76
2023/01/22 08:35:38;;;;;;;13.57;9.02;;;2.90;99.90;;;;;;4835718;29;20559;-76
2023/01/22 08:38:05;;;;;;;9.45;8.05;;;2.80;99.90;;;;;;4851136;29;20140;-77
2023/01/22 08:40:32;;;;;;;8.45;6.70;;;3.00;99.90;;;;;;4847798;29;20056;-76
2023/01/22 08:42:59;;;;;;;7.63;6.72;;;3.00;99.90;;;;;;4854436;29;20065;-77
2023/01/22 08:45:25;;;;;;;8.98;7.20;;;3.00;99.90;;;;;;4855527;29;20056;-77
2023/01/22 08:47:58;;;;;;;8.07;6.75;;;3.10;99.90;;;;;;4838779;29;20053;-76
2023/01/22 08:50:26;;;;;;;8.82;7.05;;;4.40;99.90;;;;;;4854021;29;20574;-77
2023/01/22 08:52:55;;;;;;;8.98;7.63;;;3.10;99.90;;;;;;4859237;29;20861;-75
2023/01/22 08:55:22;;;;;;;8.23;7.38;;;3.20;99.90;;;;;;4856512;29;20073;-76
2023/01/22 08:57:54;;;;;;;8.60;7.00;;;3.80;99.90;;;;;;4856227;29;20042;-81
2023/01/22 09:00:21;;;;;;;7.78;6.93;;;3.00;99.90;;;;;;4854091;29;20054;-80
2023/01/22 09:02:48;;;;;;;6.97;6.13;;;1.40;99.90;;;;;;4837787;29;20061;-81
2023/01/22 09:05:15;;;;;;;8.38;7.07;;;3.10;99.90;;;;;;4855798;29;20060;-81
2023/01/22 09:07:42;;;;;;;10.65;6.60;;;3.10;99.90;;;;;;4838036;29;20177;-81
2023/01/22 09:10:11;;;;;;;8.15;7.25;;;3.20;99.90;;;;;;4842735;29;20068;-79
2023/01/22 09:12:39;;;;;;;9.10;7.57;;;3.20;99.90;;;;;;4845515;29;20074;-80
2023/01/22 09:15:06;;;;;;;8.25;6.60;;;3.30;99.90;;;;;;4845384;29;20064;-82
2023/01/22 09:17:33;;;;;;;8.35;7.43;;;3.30;99.90;;;;;;4844000;29;20140;-82
2023/01/22 09:20:00;;;;;;;8.07;7.28;;;5.50;99.90;;;;;;4859382;29;20104;-80
2023/01/22 09:22:27;;;;;;;8.73;7.75;;;3.40;99.90;;;;;;4842824;29;20109;-83
2023/01/22 09:24:54;;;;;;;8.10;7.22;;;3.30;99.90;;;;;;4831896;29;20089;-80
2023/01/22 09:27:21;;;;;;;9.45;7.88;;;4.80;99.90;;;;;;4831925;29;20082;-82
2023/01/22 09:29:47;;;;;;;8.00;7.22;;;3.30;99.90;;;;;;4843061;29;20610;-82
2023/01/22 09:32:15;;;;;;;9.27;8.15;;;3.50;99.90;;;;;;4863723;29;20053;-82
2023/01/22 09:34:42;;;;;;;9.95;8.82;;;3.40;99.90;;;;;;4842583;29;20064;-82
2023/01/22 09:37:13;;;;;;;14.20;11.13;;;3.40;99.90;;;;;;4858580;29;20541;-82
2023/01/22 09:39:40;;;;;;;16.30;12.40;;;3.40;99.90;;;;;;4855507;29;20563;-82
2023/01/22 09:42:13;;;;;;;14.43;11.52;;;3.40;99.90;;;;;;4828844;29;20098;-81
2023/01/22 09:44:45;;;;;;;12.23;10.18;;;3.30;99.90;;;;;;4845215;29;20068;-81
2023/01/22 09:47:17;;;;;;;9.07;8.18;;;3.30;99.90;;;;;;4842504;29;20050;-81
2023/01/22 09:49:56;;;;;;;8.30;7.28;;;3.30;99.90;;;;;;4868010;29;20052;-81
2023/01/22 09:52:26;;;;;;;7.45;6.65;;;3.50;99.90;;;;;;4841430;29;20491;-81
2023/01/22 09:54:53;;;;;;;9.13;7.47;;;3.30;99.90;;;;;;4830247;29;20058;-81
2023/01/22 09:57:20;;;;;;;8.93;7.80;;;3.40;99.90;;;;;;4851090;29;20048;-82
2023/01/22 09:59:57;;;;;;;8.60;7.80;;;3.30;99.90;;;;;;4849438;29;20053;-80
2023/01/22 10:02:35;;;;;;;8.50;7.63;;;3.40;99.90;;;;;;4861324;29;20060;-81
2023/01/22 10:05:31;;;;;;;7.47;6.78;;;3.40;99.90;;;;;;4834242;29;20049;-78
2023/01/22 10:08:20;;;;;;;8.82;8.02;;;3.40;99.90;;;;;;4834897;29;20113;-78
2023/01/22 10:10:47;;;;;;;9.43;7.80;;;3.50;99.90;;;;;;4822593;29;20778;-79
2023/01/22 10:13:28;;;;;;;9.30;7.72;;;3.50;99.90;;;;;;4823326;29;20042;-79
2023/01/22 10:15:55;;;;;;;10.20;7.45;;;4.20;99.90;;;;;;4824239;29;20089;-77
2023/01/22 10:18:45;;;;;;;18.13;13.25;;;4.00;99.90;;;;;;4849528;29;20600;-78
2023/01/22 10:21:27;;;;;;;11.25;8.93;;;3.70;99.90;;;;;;4854158;29;20045;-77
2023/01/22 10:23:57;;;;;;;17.88;13.10;;;3.80;99.90;;;;;;4856540;29;20041;-77
2023/01/22 10:26:39;;;;;;;12.65;9.80;;;3.80;99.90;;;;;;4841983;29;20607;-77
2023/01/22 10:29:09;;;;;;;11.57;9.45;;;3.80;99.90;;;;;;4857138;29;20059;-77
2023/01/22 10:31:41;;;;;;;7.90;6.85;;;3.90;99.90;;;;;;4854807;29;20547;-77
2023/01/22 10:34:21;;;;;;;9.00;7.40;;;3.90;99.90;;;;;;4845914;29;20069;-78
2023/01/22 10:36:51;;;;;;;;;;;3.90;99.90;;;;;;4862159;29;20064;-78
2023/01/22 10:39:19;;;;;;;9.25;7.05;;;3.90;99.90;;;;;;4840230;29;20691;-79
2023/01/22 10:41:47;;;;;;;7.82;7.00;;;3.90;99.90;;;;;;4840101;29;20476;-79
2023/01/22 10:44:22;;;;;;;7.28;6.55;;;4.10;99.90;;;;;;4840247;29;20057;-79
2023/01/22 10:46:49;;;;;;;7.53;6.60;;;4.00;99.90;;;;;;4867052;29;20041;-78
2023/01/22 10:49:23;;;;;;;9.88;7.40;;;4.10;99.90;;;;;;4839976;29;20144;-78
2023/01/22 10:51:51;;;;;;;8.38;6.72;;;4.10;99.90;;;;;;4864606;29;20068;-78
2023/01/22 10:54:27;;;;;;;8.23;6.85;;;4.50;99.90;;;;;;4845909;29;20174;-79
2023/01/22 10:57:19;;;;;;;7.13;6.03;;;4.10;99.90;;;;;;4844638;29;20046;-79
2023/01/22 11:00:14;;;;;;;9.27;8.35;;;4.20;99.90;;;;;;4871931;29;20133;-80
2023/01/22 11:02:44;;;;;;;17.77;9.80;;;4.20;99.90;;;;;;4853925;29;20101;-80
2023/01/22 11:05:27;;;;;;;14.05;10.82;;;5.10;99.90;;;;;;4826426;29;20495;-80
2023/01/22 11:07:58;;;;;;;10.93;8.32;;;4.10;99.90;;;;;;4854349;29;20136;-81
2023/01/22 11:10:49;;;;;;;8.93;6.53;;;4.20;99.90;;;;;;4856052;29;20064;-80
2023/01/22 11:13:42;;;;;;;9.75;7.15;;;4.20;99.90;;;;;;4856732;29;20045;-81
2023/01/22 11:16:23;;;;;;;7.38;6.65;;;4.30;99.90;;;;;;4826274;29;20110;-82
2023/01/22 11:19:11;;;;;;;7.25;6.35;;;4.20;99.90;;;;;;4857936;29;20060;-84
2023/01/22 11:21:49;;;;;;;8.82;6.55;;;4.40;99.90;;;;;;4837420;29;20148;-79
2023/01/22 11:24:38;;;;;;;9.75;6.68;;;4.60;99.90;;;;;;4855219;29;20053;-81
2023/01/22 11:27:37;;;;;;;13.68;7.07;;;4.50;99.90;;;;;;4815184;29;20041;-80
2023/01/22 11:30:36;;;;;;;8.30;6.28;;;4.60;99.90;;;;;;4835035;29;20049;-78
2023/01/22 11:33:21;;;;;;;11.75;8.98;;;4.70;99.90;;;;;;4836460;29;20113;-80
2023/01/22 11:35:54;;;;;;;9.55;7.63;;;4.70;99.90;;;;;;4849814;29;20411;-80
2023/01/22 11:38:28;;;;;;;7.80;6.53;;;5.00;99.90;;;;;;4853254;29;20075;-80
2023/01/22 11:41:12;;;;;;;7.95;6.93;;;5.90;99.90;;;;;;4841149;29;20098;-78
2023/01/22 11:43:58;;;;;;;8.90;8.00;;;4.70;99.90;;;;;;4855952;29;20046;-79
2023/01/22 11:46:37;;;;;;;10.27;7.50;;;4.70;99.90;;;;;;4870492;29;20089;-81
2023/01/22 11:49:34;;;;;;;8.48;7.55;;;4.60;99.90;;;;;;4859004;29;20053;-80
2023/01/22 11:52:36;;;;;;;10.15;8.07;;;4.80;99.90;;;;;;4844813;29;20057;-80
2023/01/22 11:55:17;;;;;;;8.60;7.50;;;4.70;99.90;;;;;;4859671;29;20125;-81
2023/01/22 11:58:09;;;;;;;7.82;7.03;;;4.60;99.90;;;;;;4854777;29;20053;-80
2023/01/22 12:00:42;;;;;;;8.43;7.05;;;4.70;99.90;;;;;;4824684;29;20054;-81
2023/01/22 12:03:33;;;;;;;8.98;7.25;;;4.70;99.90;;;;;;4854366;29;20106;-81
2023/01/22 12:06:14;;;;;;;10.45;7.90;;;4.60;99.90;;;;;;4830764;29;20050;-81
2023/01/22 12:08:58;;;;;;;9.75;7.18;;;5.50;99.90;;;;;;4850347;29;20045;-81
2023/01/22 12:11:44;;;;;;;9.82;7.47;;;4.80;99.90;;;;;;4837006;29;20105;-81
2023/01/22 12:14:37;;;;;;;9.82;7.93;;;5.50;99.90;;;;;;4861828;29;20057;-81
2023/01/22 12:17:13;;;;;;;9.15;7.82;;;4.70;99.90;;;;;;4848705;29;20076;-81
2023/01/22 12:20:02;;;;;;;8.73;7.82;;;4.80;99.90;;;;;;4848621;29;20038;-80
2023/01/22 12:23:19;;;;;;;7.68;6.70;;;4.80;99.90;;;;;;4862077;29;20072;-81
2023/01/22 12:26:17;;;;;;;12.35;9.38;;;4.90;99.90;;;;;;4822148;29;20319;-82
2023/01/22 12:28:51;;;;;;;13.73;9.65;;;5.10;99.90;;;;;;4876284;29;20122;-81
2023/01/22 12:31:32;;;;;;;10.15;8.23;;;5.10;99.90;;;;;;4843504;29;20117;-81
2023/01/22 12:34:02;;;;;;;9.63;8.32;;;5.10;99.90;;;;;;4843830;29;20802;-83
2023/01/22 12:36:29;;;;;;;10.32;7.40;;;5.00;99.90;;;;;;4844671;29;20414;-82
2023/01/22 12:38:56;;;;;;;8.10;6.85;;;5.00;99.90;;;;;;4841920;29;20057;-82
2023/01/22 12:41:31;;;;;;;7.68;6.57;;;4.90;99.90;;;;;;4862534;29;20057;-82
2023/01/22 12:44:16;;;;;;;7.93;6.72;;;4.80;99.90;;;;;;4862901;29;20498;-82
2023/01/22 12:46:47;;;;;;;7.60;6.80;;;4.70;99.90;;;;;;4845247;29;20494;-82
2023/01/22 12:49:15;;;;;;;6.97;6.10;;;4.70;99.90;;;;;;4848683;29;20537;-82
2023/01/22 12:51:48;;;;;;;7.43;6.68;;;4.60;99.90;;;;;;4852284;29;20064;-83
2023/01/22 12:54:20;;;;;;;8.23;7.00;;;6.20;99.90;;;;;;4856234;29;20121;-82
2023/01/22 12:56:49;;;;;;;8.32;7.10;;;4.60;99.90;;;;;;4846446;29;20076;-82
2023/01/22 12:59:50;;;;;;;9.45;6.95;;;4.60;99.90;;;;;;4824612;29;20060;-81
2023/01/22 13:02:29;;;;;;;10.15;7.32;;;4.50;99.90;;;;;;4796162;29;20061;-82
2023/01/22 13:05:09;;;;;;;10.07;7.13;;;5.20;99.90;;;;;;4853194;29;20064;-82
2023/01/22 13:07:39;;;;;;;7.28;6.57;;;4.60;99.90;;;;;;4841748;29;20050;-82
2023/01/22 13:10:23;;;;;;;8.30;7.45;;;4.50;99.90;;;;;;4849759;29;20535;-80
2023/01/22 13:13:15;;;;;;;8.95;8.05;;;4.50;99.90;;;;;;4841180;29;20068;-80
2023/01/22 13:15:42;;;;;;;12.27;8.55;;;4.60;99.90;;;;;;4833505;29;20669;-81
2023/01/22 13:18:22;;;;;;;9.15;8.10;;;4.90;99.90;;;;;;4844066;29;20038;-83
2023/01/22 13:20:55;;;;;;;8.32;6.55;;;5.10;99.90;;;;;;4846959;29;20056;-80
2023/01/22 13:23:23;;;;;;;8.75;7.40;;;4.70;99.90;;;;;;4863876;29;20050;-80